sensor_id;sensor_type;location;lat;lon;timestamp;temperature;humidity
25504;DHT22;13410;52.114;5.718;2022-07-23T00:01:22;20.60;99.90
25504;DHT22;13410;52.114;5.718;2022-07-23T00:03:48;20.30;99.90
25504;DHT22;13410;52.114;5.718;2022-07-23T00:06:14;20.10;99.90
25504;DHT22;13410;52.114;5.718;2022-07-23T00:08:39;20.20;99.90
25504;DHT22;13410;52.114;5.718;2022-07-23T00:11:05;20.10;99.90
25504;DHT22;13410;52.114;5.718;2022-07-23T00:13:31;19.90;99.90
25504;DHT22;13410;52.114;5.718;2022-07-23T00:15:56;20.00;99.90
25504;DHT22;13410;52.114;5.718;2022-07-23T00:18:22;20.20;99.90
25504;DHT22;13410;52.114;5.718;2022-07-23T00:20:48;20.10;99.90
25504;DHT22;13410;52.114;5.718;2022-07-23T00:23:14;20.10;99.90
25504;DHT22;13410;52.114;5.718;2022-07-23T00:25:40;20.20;99.90
25504;DHT22;13410;52.114;5.718;2022-07-23T00:28:06;19.90;99.90
25504;DHT22;13410;52.114;5.718;2022-07-23T00:30:32;19.90;99.90
25504;DHT22;13410;52.114;5.718;2022-07-23T00:33:01;19.90;99.90
25504;DHT22;13410;52.114;5.718;2022-07-23T00:35:33;19.90;99.90
25504;DHT22;13410;52.114;5.718;2022-07-23T00:37:59;20.10;99.90
25504;DHT22;13410;52.114;5.718;2022-07-23T00:40:26;20.20;99.90
25504;DHT22;13410;52.114;5.718;2022-07-23T00:42:52;20.30;99.90
25504;DHT22;13410;52.114;5.718;2022-07-23T00:45:19;20.00;99.90
25504;DHT22;13410;52.114;5.718;2022-07-23T00:47:45;19.80;99.90
25504;DHT22;13410;52.114;5.718;2022-07-23T00:50:12;19.70;99.90
25504;DHT22;13410;52.114;5.718;2022-07-23T00:52:39;19.70;99.90
25504;DHT22;13410;52.114;5.718;2022-07-23T00:55:05;19.60;99.90
25504;DHT22;13410;52.114;5.718;2022-07-23T00:57:31;19.60;99.90
25504;DHT22;13410;52.114;5.718;2022-07-23T00:59:57;19.90;99.90
25504;DHT22;13410;52.114;5.718;2022-07-23T01:02:26;20.10;99.90
25504;DHT22;13410;52.114;5.718;2022-07-23T01:04:52;20.20;99.90
25504;DHT22;13410;52.114;5.718;2022-07-23T01:07:18;19.90;99.90
25504;DHT22;13410;52.114;5.718;2022-07-23T01:09:45;19.60;99.90
25504;DHT22;13410;52.114;5.718;2022-07-23T01:12:11;19.50;99.90
25504;DHT22;13410;52.114;5.718;2022-07-23T01:14:37;19.60;99.90
25504;DHT22;13410;52.114;5.718;2022-07-23T01:17:02;19.60;99.90
25504;DHT22;13410;52.114;5.718;2022-07-23T01:19:28;19.40;99.90
25504;DHT22;13410;52.114;5.718;2022-07-23T01:21:57;19.40;99.90
25504;DHT22;13410;52.114;5.718;2022-07-23T01:24:24;19.40;99.90
25504;DHT22;13410;52.114;5.718;2022-07-23T01:26:50;19.40;99.90
25504;DHT22;13410;52.114;5.718;2022-07-23T01:29:16;19.30;99.90
25504;DHT22;13410;52.114;5.718;2022-07-23T01:31:42;19.20;99.90
25504;DHT22;13410;52.114;5.718;2022-07-23T01:34:08;19.20;99.90
25504;DHT22;13410;52.114;5.718;2022-07-23T01:36:35;19.30;99.90
25504;DHT22;13410;52.114;5.718;2022-07-23T01:39:02;19.00;99.90
25504;DHT22;13410;52.114;5.718;2022-07-23T01:41:28;19.00;99.90
25504;DHT22;13410;52.114;5.718;2022-07-23T01:43:53;19.10;99.90
25504;DHT22;13410;52.114;5.718;2022-07-23T01:46:19;19.20;99.90
25504;DHT22;13410;52.114;5.718;2022-07-23T01:48:45;19.50;99.90
25504;DHT22;13410;52.114;5.718;2022-07-23T01:51:11;19.40;99.90
25504;DHT22;13410;52.114;5.718;2022-07-23T01:53:37;19.30;99.90
25504;DHT22;13410;52.114;5.718;2022-07-23T01:56:03;19.50;99.90
25504;DHT22;13410;52.114;5.718;2022-07-23T01:58:29;19.30;99.90
25504;DHT22;13410;52.114;5.718;2022-07-23T02:00:55;19.10;99.90
25504;DHT22;13410;52.114;5.718;2022-07-23T02:03:21;19.30;99.90
25504;DHT22;13410;52.114;5.718;2022-07-23T02:05:46;19.20;99.90
25504;DHT22;13410;52.114;5.718;2022-07-23T02:08:12;19.20;99.90
25504;DHT22;13410;52.114;5.718;2022-07-23T02:10:38;19.50;99.90
25504;DHT22;13410;52.114;5.718;2022-07-23T02:13:04;19.50;99.90
25504;DHT22;13410;52.114;5.718;2022-07-23T02:15:29;19.30;99.90
25504;DHT22;13410;52.114;5.718;2022-07-23T02:17:55;19.20;99.90
25504;DHT22;13410;52.114;5.718;2022-07-23T02:20:21;19.00;99.90
25504;DHT22;13410;52.114;5.718;2022-07-23T02:22:47;19.20;99.90
25504;DHT22;13410;52.114;5.718;2022-07-23T02:25:13;19.20;99.90
25504;DHT22;13410;52.114;5.718;2022-07-23T02:27:39;19.20;99.90
25504;DHT22;13410;52.114;5.718;2022-07-23T02:30:05;19.10;99.90
25504;DHT22;13410;52.114;5.718;2022-07-23T02:32:30;19.00;99.90
25504;DHT22;13410;52.114;5.718;2022-07-23T02:34:56;18.80;99.90
25504;DHT22;13410;52.114;5.718;2022-07-23T02:37:22;19.10;99.90
25504;DHT22;13410;52.114;5.718;2022-07-23T02:39:47;19.10;99.90
25504;DHT22;13410;52.114;5.718;2022-07-23T02:42:14;18.80;99.90
25504;DHT22;13410;52.114;5.718;2022-07-23T02:44:40;18.90;99.90
25504;DHT22;13410;52.114;5.718;2022-07-23T02:47:06;18.90;99.90
25504;DHT22;13410;52.114;5.718;2022-07-23T02:49:31;19.00;99.90
25504;DHT22;13410;52.114;5.718;2022-07-23T02:51:57;19.00;99.90
25504;DHT22;13410;52.114;5.718;2022-07-23T02:54:22;18.60;99.90
25504;DHT22;13410;52.114;5.718;2022-07-23T02:56:48;18.50;99.90
25504;DHT22;13410;52.114;5.718;2022-07-23T02:59:16;18.50;99.90
25504;DHT22;13410;52.114;5.718;2022-07-23T03:01:41;18.40;99.90
25504;DHT22;13410;52.114;5.718;2022-07-23T03:04:07;18.50;99.90
25504;DHT22;13410;52.114;5.718;2022-07-23T03:06:32;18.70;99.90
25504;DHT22;13410;52.114;5.718;2022-07-23T03:08:58;18.70;99.90
25504;DHT22;13410;52.114;5.718;2022-07-23T03:11:23;18.20;99.90
25504;DHT22;13410;52.114;5.718;2022-07-23T03:13:49;18.20;99.90
25504;DHT22;13410;52.114;5.718;2022-07-23T03:16:14;18.40;99.90
25504;DHT22;13410;52.114;5.718;2022-07-23T03:18:40;18.20;99.90
25504;DHT22;13410;52.114;5.718;2022-07-23T03:21:08;18.20;99.90
25504;DHT22;13410;52.114;5.718;2022-07-23T03:23:34;18.10;99.90
25504;DHT22;13410;52.114;5.718;2022-07-23T03:25:59;18.00;99.90
25504;DHT22;13410;52.114;5.718;2022-07-23T03:28:25;18.00;99.90
25504;DHT22;13410;52.114;5.718;2022-07-23T03:30:51;18.10;99.90
25504;DHT22;13410;52.114;5.718;2022-07-23T03:33:17;18.30;99.90
25504;DHT22;13410;52.114;5.718;2022-07-23T03:35:44;18.30;99.90
25504;DHT22;13410;52.114;5.718;2022-07-23T03:38:10;18.10;99.90
25504;DHT22;13410;52.114;5.718;2022-07-23T03:40:36;17.90;99.90
25504;DHT22;13410;52.114;5.718;2022-07-23T03:43:02;17.90;99.90
25504;DHT22;13410;52.114;5.718;2022-07-23T03:45:27;17.80;99.90
25504;DHT22;13410;52.114;5.718;2022-07-23T03:47:53;18.00;99.90
25504;DHT22;13410;52.114;5.718;2022-07-23T03:50:19;18.10;99.90
25504;DHT22;13410;52.114;5.718;2022-07-23T03:52:45;18.20;99.90
25504;DHT22;13410;52.114;5.718;2022-07-23T03:55:10;18.40;99.90
25504;DHT22;13410;52.114;5.718;2022-07-23T03:57:36;18.30;99.90
25504;DHT22;13410;52.114;5.718;2022-07-23T04:00:03;18.20;99.90
25504;DHT22;13410;52.114;5.718;2022-07-23T04:02:29;18.20;99.90
25504;DHT22;13410;52.114;5.718;2022-07-23T04:04:55;18.20;99.90
25504;DHT22;13410;52.114;5.718;2022-07-23T04:07:21;18.20;99.90
25504;DHT22;13410;52.114;5.718;2022-07-23T04:09:47;18.10;99.90
25504;DHT22;13410;52.114;5.718;2022-07-23T04:12:13;18.50;99.90
25504;DHT22;13410;52.114;5.718;2022-07-23T04:14:38;18.60;99.90
25504;DHT22;13410;52.114;5.718;2022-07-23T04:17:04;18.70;99.90
25504;DHT22;13410;52.114;5.718;2022-07-23T04:19:30;18.90;99.90
25504;DHT22;13410;52.114;5.718;2022-07-23T04:21:56;19.10;99.90
25504;DHT22;13410;52.114;5.718;2022-07-23T04:24:21;19.60;99.90
25504;DHT22;13410;52.114;5.718;2022-07-23T04:26:47;19.80;99.90
25504;DHT22;13410;52.114;5.718;2022-07-23T04:29:13;20.00;99.90
25504;DHT22;13410;52.114;5.718;2022-07-23T04:31:38;20.50;99.90
25504;DHT22;13410;52.114;5.718;2022-07-23T04:34:04;20.70;99.90
25504;DHT22;13410;52.114;5.718;2022-07-23T04:36:29;21.20;99.90
25504;DHT22;13410;52.114;5.718;2022-07-23T04:38:55;21.60;99.90
25504;DHT22;13410;52.114;5.718;2022-07-23T04:41:20;21.90;99.90
25504;DHT22;13410;52.114;5.718;2022-07-23T04:43:46;22.10;99.90
25504;DHT22;13410;52.114;5.718;2022-07-23T04:46:12;22.60;99.90
25504;DHT22;13410;52.114;5.718;2022-07-23T04:48:39;22.90;99.90
25504;DHT22;13410;52.114;5.718;2022-07-23T04:51:05;23.30;99.90
25504;DHT22;13410;52.114;5.718;2022-07-23T04:53:31;23.70;99.90
25504;DHT22;13410;52.114;5.718;2022-07-23T04:55:56;23.80;99.90
25504;DHT22;13410;52.114;5.718;2022-07-23T04:58:22;24.00;99.90
25504;DHT22;13410;52.114;5.718;2022-07-23T05:00:48;24.30;99.90
25504;DHT22;13410;52.114;5.718;2022-07-23T05:03:13;24.40;99.90
25504;DHT22;13410;52.114;5.718;2022-07-23T05:05:39;24.70;99.90
25504;DHT22;13410;52.114;5.718;2022-07-23T05:08:05;25.00;99.90
25504;DHT22;13410;52.114;5.718;2022-07-23T05:10:30;25.60;99.90
25504;DHT22;13410;52.114;5.718;2022-07-23T05:12:56;25.70;99.90
25504;DHT22;13410;52.114;5.718;2022-07-23T05:15:22;25.60;99.90
25504;DHT22;13410;52.114;5.718;2022-07-23T05:17:47;25.50;99.90
25504;DHT22;13410;52.114;5.718;2022-07-23T05:20:13;26.20;99.90
25504;DHT22;13410;52.114;5.718;2022-07-23T05:22:39;27.00;99.90
25504;DHT22;13410;52.114;5.718;2022-07-23T05:25:05;27.30;99.90
25504;DHT22;13410;52.114;5.718;2022-07-23T05:27:31;27.40;99.90
25504;DHT22;13410;52.114;5.718;2022-07-23T05:29:57;27.60;99.90
25504;DHT22;13410;52.114;5.718;2022-07-23T05:32:22;28.00;99.90
25504;DHT22;13410;52.114;5.718;2022-07-23T05:34:48;28.50;99.90
25504;DHT22;13410;52.114;5.718;2022-07-23T05:37:14;28.50;99.90
25504;DHT22;13410;52.114;5.718;2022-07-23T05:39:39;28.90;99.90
25504;DHT22;13410;52.114;5.718;2022-07-23T05:42:05;28.80;99.90
25504;DHT22;13410;52.114;5.718;2022-07-23T05:44:30;29.00;99.90
25504;DHT22;13410;52.114;5.718;2022-07-23T05:46:56;29.20;99.90
25504;DHT22;13410;52.114;5.718;2022-07-23T05:49:22;29.20;99.90
25504;DHT22;13410;52.114;5.718;2022-07-23T05:51:47;29.40;99.90
25504;DHT22;13410;52.114;5.718;2022-07-23T05:54:13;29.80;99.90
25504;DHT22;13410;52.114;5.718;2022-07-23T05:56:38;29.70;99.90
25504;DHT22;13410;52.114;5.718;2022-07-23T05:59:04;29.60;99.90
25504;DHT22;13410;52.114;5.718;2022-07-23T06:01:30;29.90;99.90
25504;DHT22;13410;52.114;5.718;2022-07-23T06:03:55;30.00;99.90
25504;DHT22;13410;52.114;5.718;2022-07-23T06:06:21;30.10;99.90
25504;DHT22;13410;52.114;5.718;2022-07-23T06:08:46;30.90;99.90
25504;DHT22;13410;52.114;5.718;2022-07-23T06:11:12;30.90;99.90
25504;DHT22;13410;52.114;5.718;2022-07-23T06:13:37;31.00;99.90
25504;DHT22;13410;52.114;5.718;2022-07-23T06:16:06;31.30;99.90
25504;DHT22;13410;52.114;5.718;2022-07-23T06:18:31;31.60;99.90
25504;DHT22;13410;52.114;5.718;2022-07-23T06:20:57;32.10;99.90
25504;DHT22;13410;52.114;5.718;2022-07-23T06:23:22;32.10;99.90
25504;DHT22;13410;52.114;5.718;2022-07-23T06:25:48;31.70;99.90
25504;DHT22;13410;52.114;5.718;2022-07-23T06:28:14;32.10;99.90
25504;DHT22;13410;52.114;5.718;2022-07-23T06:30:39;32.40;99.90
25504;DHT22;13410;52.114;5.718;2022-07-23T06:33:05;32.60;99.90
25504;DHT22;13410;52.114;5.718;2022-07-23T06:35:31;32.70;99.90
25504;DHT22;13410;52.114;5.718;2022-07-23T06:37:56;32.40;99.90
25504;DHT22;13410;52.114;5.718;2022-07-23T06:40:22;32.70;99.90
25504;DHT22;13410;52.114;5.718;2022-07-23T06:42:47;33.10;99.90
25504;DHT22;13410;52.114;5.718;2022-07-23T06:45:13;32.70;99.90
25504;DHT22;13410;52.114;5.718;2022-07-23T06:47:38;32.80;99.90
25504;DHT22;13410;52.114;5.718;2022-07-23T06:50:06;32.80;99.90
25504;DHT22;13410;52.114;5.718;2022-07-23T06:52:32;32.50;99.90
25504;DHT22;13410;52.114;5.718;2022-07-23T06:54:57;32.60;99.90
25504;DHT22;13410;52.114;5.718;2022-07-23T06:57:23;32.80;99.90
25504;DHT22;13410;52.114;5.718;2022-07-23T06:59:51;33.10;99.90
25504;DHT22;13410;52.114;5.718;2022-07-23T07:02:16;33.40;99.90
25504;DHT22;13410;52.114;5.718;2022-07-23T07:04:42;33.40;99.90
25504;DHT22;13410;52.114;5.718;2022-07-23T07:07:08;33.30;99.90
25504;DHT22;13410;52.114;5.718;2022-07-23T07:09:33;33.30;99.90
25504;DHT22;13410;52.114;5.718;2022-07-23T07:11:59;33.20;99.90
25504;DHT22;13410;52.114;5.718;2022-07-23T07:14:24;33.30;99.90
25504;DHT22;13410;52.114;5.718;2022-07-23T07:16:50;33.70;99.90
25504;DHT22;13410;52.114;5.718;2022-07-23T07:19:16;33.80;99.90
25504;DHT22;13410;52.114;5.718;2022-07-23T07:21:41;33.50;99.90
25504;DHT22;13410;52.114;5.718;2022-07-23T07:24:07;33.40;99.90
25504;DHT22;13410;52.114;5.718;2022-07-23T07:26:33;33.00;99.90
25504;DHT22;13410;52.114;5.718;2022-07-23T07:28:58;32.70;99.90
25504;DHT22;13410;52.114;5.718;2022-07-23T07:31:24;32.70;99.90
25504;DHT22;13410;52.114;5.718;2022-07-23T07:33:50;32.60;99.90
25504;DHT22;13410;52.114;5.718;2022-07-23T07:36:15;32.10;99.90
25504;DHT22;13410;52.114;5.718;2022-07-23T07:38:41;31.90;99.90
25504;DHT22;13410;52.114;5.718;2022-07-23T07:41:06;32.70;99.90
25504;DHT22;13410;52.114;5.718;2022-07-23T07:43:33;32.60;99.90
25504;DHT22;13410;52.114;5.718;2022-07-23T07:45:58;32.60;99.90
25504;DHT22;13410;52.114;5.718;2022-07-23T07:48:24;32.90;99.90
25504;DHT22;13410;52.114;5.718;2022-07-23T07:50:50;32.70;99.90
25504;DHT22;13410;52.114;5.718;2022-07-23T07:53:15;32.20;99.90
25504;DHT22;13410;52.114;5.718;2022-07-23T07:55:41;32.00;99.90
25504;DHT22;13410;52.114;5.718;2022-07-23T07:58:06;32.10;99.90
25504;DHT22;13410;52.114;5.718;2022-07-23T08:00:32;32.20;99.90
25504;DHT22;13410;52.114;5.718;2022-07-23T08:02:58;31.70;99.90
25504;DHT22;13410;52.114;5.718;2022-07-23T08:05:26;30.80;99.90
25504;DHT22;13410;52.114;5.718;2022-07-23T08:07:52;30.50;99.90
25504;DHT22;13410;52.114;5.718;2022-07-23T08:10:18;29.50;99.90
25504;DHT22;13410;52.114;5.718;2022-07-23T08:12:50;28.70;99.90
25504;DHT22;13410;52.114;5.718;2022-07-23T08:15:17;28.50;99.90
25504;DHT22;13410;52.114;5.718;2022-07-23T08:17:44;28.10;99.90
25504;DHT22;13410;52.114;5.718;2022-07-23T08:20:12;28.00;99.90
25504;DHT22;13410;52.114;5.718;2022-07-23T08:22:42;28.20;99.90
25504;DHT22;13410;52.114;5.718;2022-07-23T08:25:08;28.30;99.90
25504;DHT22;13410;52.114;5.718;2022-07-23T08:27:34;28.10;99.90
25504;DHT22;13410;52.114;5.718;2022-07-23T08:30:00;27.50;99.90
25504;DHT22;13410;52.114;5.718;2022-07-23T08:32:25;27.20;99.90
25504;DHT22;13410;52.114;5.718;2022-07-23T08:34:51;26.80;99.90
25504;DHT22;13410;52.114;5.718;2022-07-23T08:37:16;26.10;99.90
25504;DHT22;13410;52.114;5.718;2022-07-23T08:39:42;26.30;99.90
25504;DHT22;13410;52.114;5.718;2022-07-23T08:42:07;26.60;99.90
25504;DHT22;13410;52.114;5.718;2022-07-23T08:44:35;27.00;99.90
25504;DHT22;13410;52.114;5.718;2022-07-23T08:47:01;27.00;99.90
25504;DHT22;13410;52.114;5.718;2022-07-23T08:49:28;27.30;99.90
25504;DHT22;13410;52.114;5.718;2022-07-23T08:51:54;27.30;99.90
25504;DHT22;13410;52.114;5.718;2022-07-23T08:54:22;27.60;99.90
25504;DHT22;13410;52.114;5.718;2022-07-23T08:56:48;27.80;99.90
25504;DHT22;13410;52.114;5.718;2022-07-23T08:59:14;28.20;99.90
25504;DHT22;13410;52.114;5.718;2022-07-23T09:01:40;28.40;99.90
25504;DHT22;13410;52.114;5.718;2022-07-23T09:04:05;28.60;99.90
25504;DHT22;13410;52.114;5.718;2022-07-23T09:06:31;28.50;99.90
25504;DHT22;13410;52.114;5.718;2022-07-23T09:09:16;28.00;99.90
25504;DHT22;13410;52.114;5.718;2022-07-23T09:11:46;27.80;99.90
25504;DHT22;13410;52.114;5.718;2022-07-23T09:14:12;27.40;99.90
25504;DHT22;13410;52.114;5.718;2022-07-23T09:16:37;27.00;99.90
25504;DHT22;13410;52.114;5.718;2022-07-23T09:19:05;26.70;99.90
25504;DHT22;13410;52.114;5.718;2022-07-23T09:24:10;27.00;99.90
25504;DHT22;13410;52.114;5.718;2022-07-23T09:26:39;27.40;99.90
25504;DHT22;13410;52.114;5.718;2022-07-23T09:29:18;27.60;99.90
25504;DHT22;13410;52.114;5.718;2022-07-23T09:32:06;27.60;99.90
25504;DHT22;13410;52.114;5.718;2022-07-23T09:34:37;27.80;99.90
25504;DHT22;13410;52.114;5.718;2022-07-23T09:37:17;27.60;99.90
25504;DHT22;13410;52.114;5.718;2022-07-23T09:39:44;27.60;99.90
25504;DHT22;13410;52.114;5.718;2022-07-23T09:44:46;26.70;99.90
25504;DHT22;13410;52.114;5.718;2022-07-23T09:47:12;26.60;99.90
25504;DHT22;13410;52.114;5.718;2022-07-23T09:49:38;27.00;99.90
25504;DHT22;13410;52.114;5.718;2022-07-23T09:52:04;27.00;99.90
25504;DHT22;13410;52.114;5.718;2022-07-23T09:54:38;27.30;99.90
25504;DHT22;13410;52.114;5.718;2022-07-23T09:57:11;27.60;99.90
25504;DHT22;13410;52.114;5.718;2022-07-23T09:59:42;28.00;99.90
25504;DHT22;13410;52.114;5.718;2022-07-23T10:02:11;28.00;99.90
25504;DHT22;13410;52.114;5.718;2022-07-23T10:04:39;28.30;99.90
25504;DHT22;13410;52.114;5.718;2022-07-23T10:07:07;27.90;99.90
25504;DHT22;13410;52.114;5.718;2022-07-23T10:09:40;27.70;99.90
25504;DHT22;13410;52.114;5.718;2022-07-23T10:12:13;27.60;99.90
25504;DHT22;13410;52.114;5.718;2022-07-23T10:14:45;27.50;99.90
25504;DHT22;13410;52.114;5.718;2022-07-23T10:17:11;27.60;99.90
25504;DHT22;13410;52.114;5.718;2022-07-23T10:19:37;27.30;99.90
25504;DHT22;13410;52.114;5.718;2022-07-23T10:22:13;27.00;99.90
25504;DHT22;13410;52.114;5.718;2022-07-23T10:30:31;27.50;99.90
25504;DHT22;13410;52.114;5.718;2022-07-23T10:36:02;27.60;99.90
25504;DHT22;13410;52.114;5.718;2022-07-23T10:38:53;27.60;99.90
25504;DHT22;13410;52.114;5.718;2022-07-23T10:44:10;27.70;99.90
25504;DHT22;13410;52.114;5.718;2022-07-23T10:46:56;27.90;99.90
25504;DHT22;13410;52.114;5.718;2022-07-23T10:49:34;27.60;99.90
25504;DHT22;13410;52.114;5.718;2022-07-23T10:54:52;28.10;99.90
25504;DHT22;13410;52.114;5.718;2022-07-23T10:57:26;28.60;99.90
25504;DHT22;13410;52.114;5.718;2022-07-23T11:02:41;28.90;99.90
25504;DHT22;13410;52.114;5.718;2022-07-23T11:05:13;29.00;99.90
25504;DHT22;13410;52.114;5.718;2022-07-23T11:31:57;29.00;99.90
25504;DHT22;13410;52.114;5.718;2022-07-23T11:37:06;29.20;99.90
25504;DHT22;13410;52.114;5.718;2022-07-23T11:39:33;29.10;99.90
25504;DHT22;13410;52.114;5.718;2022-07-23T11:41:59;29.00;99.90
25504;DHT22;13410;52.114;5.718;2022-07-23T11:44:29;29.10;99.90
25504;DHT22;13410;52.114;5.718;2022-07-23T11:46:57;29.50;99.90
25504;DHT22;13410;52.114;5.718;2022-07-23T11:49:23;29.60;99.90
25504;DHT22;13410;52.114;5.718;2022-07-23T11:52:22;29.40;99.90
25504;DHT22;13410;52.114;5.718;2022-07-23T11:54:56;29.00;99.90
25504;DHT22;13410;52.114;5.718;2022-07-23T11:57:30;28.60;99.90
25504;DHT22;13410;52.114;5.718;2022-07-23T12:00:04;28.40;99.90
25504;DHT22;13410;52.114;5.718;2022-07-23T12:02:30;28.80;99.90
25504;DHT22;13410;52.114;5.718;2022-07-23T12:04:55;29.30;99.90
25504;DHT22;13410;52.114;5.718;2022-07-23T12:07:25;29.50;99.90
25504;DHT22;13410;52.114;5.718;2022-07-23T12:09:51;29.70;99.90
25504;DHT22;13410;52.114;5.718;2022-07-23T12:12:16;29.70;99.90
25504;DHT22;13410;52.114;5.718;2022-07-23T12:14:54;29.20;99.90
25504;DHT22;13410;52.114;5.718;2022-07-23T12:17:21;29.00;99.90
25504;DHT22;13410;52.114;5.718;2022-07-23T12:19:47;29.10;99.90
25504;DHT22;13410;52.114;5.718;2022-07-23T12:22:13;29.30;99.90
25504;DHT22;13410;52.114;5.718;2022-07-23T12:24:59;29.40;99.90
25504;DHT22;13410;52.114;5.718;2022-07-23T12:27:26;29.80;99.90
25504;DHT22;13410;52.114;5.718;2022-07-23T12:29:52;29.90;99.90
25504;DHT22;13410;52.114;5.718;2022-07-23T12:32:20;30.00;99.90
25504;DHT22;13410;52.114;5.718;2022-07-23T12:35:09;30.20;99.90
25504;DHT22;13410;52.114;5.718;2022-07-23T12:37:45;30.10;99.90
25504;DHT22;13410;52.114;5.718;2022-07-23T12:40:29;30.00;99.90
25504;DHT22;13410;52.114;5.718;2022-07-23T12:43:09;30.10;99.90
25504;DHT22;13410;52.114;5.718;2022-07-23T12:48:27;30.60;99.90
25504;DHT22;13410;52.114;5.718;2022-07-23T12:50:54;30.70;99.90
25504;DHT22;13410;52.114;5.718;2022-07-23T12:55:49;30.50;99.90
25504;DHT22;13410;52.114;5.718;2022-07-23T12:58:17;30.30;99.90
25504;DHT22;13410;52.114;5.718;2022-07-23T13:01:10;29.80;99.90
25504;DHT22;13410;52.114;5.718;2022-07-23T13:06:27;30.20;99.90
25504;DHT22;13410;52.114;5.718;2022-07-23T13:08:53;30.20;99.90
25504;DHT22;13410;52.114;5.718;2022-07-23T13:11:18;30.20;99.90
25504;DHT22;13410;52.114;5.718;2022-07-23T13:13:44;29.50;99.90
25504;DHT22;13410;52.114;5.718;2022-07-23T13:16:09;29.20;99.90
25504;DHT22;13410;52.114;5.718;2022-07-23T13:18:35;29.50;99.90
25504;DHT22;13410;52.114;5.718;2022-07-23T13:21:00;29.60;99.90
25504;DHT22;13410;52.114;5.718;2022-07-23T13:23:27;29.60;99.90
25504;DHT22;13410;52.114;5.718;2022-07-23T13:25:53;29.40;99.90
25504;DHT22;13410;52.114;5.718;2022-07-23T13:28:20;29.70;99.90
25504;DHT22;13410;52.114;5.718;2022-07-23T13:30:46;30.00;99.90
25504;DHT22;13410;52.114;5.718;2022-07-23T13:33:15;30.30;99.90
25504;DHT22;13410;52.114;5.718;2022-07-23T13:35:41;30.40;99.90
25504;DHT22;13410;52.114;5.718;2022-07-23T13:38:07;30.60;99.90
25504;DHT22;13410;52.114;5.718;2022-07-23T13:40:42;30.80;99.90
25504;DHT22;13410;52.114;5.718;2022-07-23T13:43:09;30.60;99.90
25504;DHT22;13410;52.114;5.718;2022-07-23T13:45:35;29.70;99.90
25504;DHT22;13410;52.114;5.718;2022-07-23T13:48:01;29.30;99.90
25504;DHT22;13410;52.114;5.718;2022-07-23T13:50:27;29.40;99.90
25504;DHT22;13410;52.114;5.718;2022-07-23T13:52:53;29.60;99.90
25504;DHT22;13410;52.114;5.718;2022-07-23T13:55:18;29.60;99.90
25504;DHT22;13410;52.114;5.718;2022-07-23T13:57:44;29.80;99.90
25504;DHT22;13410;52.114;5.718;2022-07-23T14:00:10;29.90;99.90
25504;DHT22;13410;52.114;5.718;2022-07-23T14:02:38;30.10;99.90
25504;DHT22;13410;52.114;5.718;2022-07-23T14:05:09;29.80;99.90
25504;DHT22;13410;52.114;5.718;2022-07-23T14:07:36;29.40;99.90
25504;DHT22;13410;52.114;5.718;2022-07-23T14:10:03;29.40;99.90
25504;DHT22;13410;52.114;5.718;2022-07-23T14:12:29;29.40;99.90
25504;DHT22;13410;52.114;5.718;2022-07-23T14:14:54;29.40;99.90
25504;DHT22;13410;52.114;5.718;2022-07-23T14:17:20;29.30;99.90
25504;DHT22;13410;52.114;5.718;2022-07-23T14:19:51;29.20;99.90
25504;DHT22;13410;52.114;5.718;2022-07-23T14:22:17;29.60;99.90
25504;DHT22;13410;52.114;5.718;2022-07-23T14:24:43;30.00;99.90
25504;DHT22;13410;52.114;5.718;2022-07-23T14:27:09;30.00;99.90
25504;DHT22;13410;52.114;5.718;2022-07-23T14:29:34;29.50;99.90
25504;DHT22;13410;52.114;5.718;2022-07-23T14:32:00;29.50;99.90
25504;DHT22;13410;52.114;5.718;2022-07-23T14:34:26;29.80;99.90
25504;DHT22;13410;52.114;5.718;2022-07-23T14:36:52;29.70;99.90
25504;DHT22;13410;52.114;5.718;2022-07-23T14:39:18;29.30;99.90
25504;DHT22;13410;52.114;5.718;2022-07-23T14:41:44;29.50;99.90
25504;DHT22;13410;52.114;5.718;2022-07-23T14:44:10;29.40;99.90
25504;DHT22;13410;52.114;5.718;2022-07-23T14:46:36;29.30;99.90
25504;DHT22;13410;52.114;5.718;2022-07-23T14:49:02;29.40;99.90
25504;DHT22;13410;52.114;5.718;2022-07-23T14:51:28;29.50;99.90
25504;DHT22;13410;52.114;5.718;2022-07-23T14:53:54;29.80;99.90
25504;DHT22;13410;52.114;5.718;2022-07-23T14:56:19;30.30;99.90
25504;DHT22;13410;52.114;5.718;2022-07-23T14:58:45;30.70;99.90
25504;DHT22;13410;52.114;5.718;2022-07-23T15:01:11;30.90;99.90
25504;DHT22;13410;52.114;5.718;2022-07-23T15:03:37;30.80;99.90
25504;DHT22;13410;52.114;5.718;2022-07-23T15:06:03;30.70;99.90
25504;DHT22;13410;52.114;5.718;2022-07-23T15:08:29;30.80;99.90
25504;DHT22;13410;52.114;5.718;2022-07-23T15:10:55;30.30;99.90
25504;DHT22;13410;52.114;5.718;2022-07-23T15:13:20;30.10;99.90
25504;DHT22;13410;52.114;5.718;2022-07-23T15:15:46;30.20;99.90
25504;DHT22;13410;52.114;5.718;2022-07-23T15:18:12;30.50;99.90
25504;DHT22;13410;52.114;5.718;2022-07-23T15:20:37;31.00;99.90
25504;DHT22;13410;52.114;5.718;2022-07-23T15:23:04;31.20;99.90
25504;DHT22;13410;52.114;5.718;2022-07-23T15:25:30;31.20;99.90
25504;DHT22;13410;52.114;5.718;2022-07-23T15:27:57;31.30;99.90
25504;DHT22;13410;52.114;5.718;2022-07-23T15:30:27;31.20;99.90
25504;DHT22;13410;52.114;5.718;2022-07-23T15:32:52;31.00;99.90
25504;DHT22;13410;52.114;5.718;2022-07-23T15:35:19;30.50;99.90
25504;DHT22;13410;52.114;5.718;2022-07-23T15:37:44;30.40;99.90
25504;DHT22;13410;52.114;5.718;2022-07-23T15:40:10;30.30;99.90
25504;DHT22;13410;52.114;5.718;2022-07-23T15:42:36;30.50;99.90
25504;DHT22;13410;52.114;5.718;2022-07-23T15:45:03;30.50;99.90
25504;DHT22;13410;52.114;5.718;2022-07-23T15:47:28;30.70;99.90
25504;DHT22;13410;52.114;5.718;2022-07-23T15:49:54;30.60;99.90
25504;DHT22;13410;52.114;5.718;2022-07-23T15:52:19;30.60;99.90
25504;DHT22;13410;52.114;5.718;2022-07-23T15:54:45;30.60;99.90
25504;DHT22;13410;52.114;5.718;2022-07-23T15:57:11;30.70;99.90
25504;DHT22;13410;52.114;5.718;2022-07-23T15:59:37;31.10;99.90
25504;DHT22;13410;52.114;5.718;2022-07-23T16:02:03;31.40;99.90
25504;DHT22;13410;52.114;5.718;2022-07-23T16:04:29;31.70;99.90
25504;DHT22;13410;52.114;5.718;2022-07-23T16:06:56;31.70;99.90
25504;DHT22;13410;52.114;5.718;2022-07-23T16:09:22;31.80;99.90
25504;DHT22;13410;52.114;5.718;2022-07-23T16:11:48;31.80;99.90
25504;DHT22;13410;52.114;5.718;2022-07-23T16:14:13;31.90;99.90
25504;DHT22;13410;52.114;5.718;2022-07-23T16:16:40;31.90;99.90
25504;DHT22;13410;52.114;5.718;2022-07-23T16:19:06;32.00;99.90
25504;DHT22;13410;52.114;5.718;2022-07-23T16:21:31;31.60;99.90
25504;DHT22;13410;52.114;5.718;2022-07-23T16:23:57;31.60;99.90
25504;DHT22;13410;52.114;5.718;2022-07-23T16:26:23;31.70;99.90